sensor_id;sensor_type;location;lat;lon;timestamp;P1;durP1;ratioP1;P2;durP2;ratioP2
54665;SDS011;40566;50.006;36.180;2023-04-01T00:02:35;9.00;;;3.15;;
54665;SDS011;40566;50.006;36.180;2023-04-01T00:07:36;8.40;;;2.53;;
54665;SDS011;40566;50.006;36.180;2023-04-01T00:12:37;21.88;;;6.13;;
54665;SDS011;40566;50.006;36.180;2023-04-01T00:17:39;15.35;;;5.15;;
54665;SDS011;40566;50.006;36.180;2023-04-01T00:22:40;8.93;;;2.75;;
54665;SDS011;40566;50.006;36.180;2023-04-01T00:27:41;6.88;;;2.03;;
54665;SDS011;40566;50.006;36.180;2023-04-01T00:32:41;15.80;;;2.67;;
54665;SDS011;40566;50.006;36.180;2023-04-01T00:37:42;12.02;;;2.67;;
54665;SDS011;40566;50.006;36.180;2023-04-01T00:42:42;6.97;;;1.55;;
54665;SDS011;40566;50.006;36.180;2023-04-01T00:47:43;5.75;;;2.35;;
54665;SDS011;40566;50.006;36.180;2023-04-01T00:52:43;15.30;;;3.20;;
54665;SDS011;40566;50.006;36.180;2023-04-01T00:57:44;10.27;;;3.17;;
54665;SDS011;40566;50.006;36.180;2023-04-01T01:02:46;7.80;;;2.83;;
54665;SDS011;40566;50.006;36.180;2023-04-01T01:24:12;16.92;;;3.90;;
54665;SDS011;40566;50.006;36.180;2023-04-01T01:40:07;9.73;;;2.70;;
54665;SDS011;40566;50.006;36.180;2023-04-01T01:45:11;10.45;;;2.72;;
54665;SDS011;40566;50.006;36.180;2023-04-01T01:50:18;7.70;;;2.55;;
54665;SDS011;40566;50.006;36.180;2023-04-01T01:55:39;7.63;;;2.10;;
54665;SDS011;40566;50.006;36.180;2023-04-01T02:00:42;12.50;;;2.90;;
54665;SDS011;40566;50.006;36.180;2023-04-01T02:05:47;6.47;;;2.28;;
54665;SDS011;40566;50.006;36.180;2023-04-01T02:10:55;8.35;;;2.65;;
54665;SDS011;40566;50.006;36.180;2023-04-01T02:15:59;11.20;;;2.50;;
54665;SDS011;40566;50.006;36.180;2023-04-01T02:21:05;11.32;;;3.90;;
54665;SDS011;40566;50.006;36.180;2023-04-01T02:26:07;32.35;;;3.30;;
54665;SDS011;40566;50.006;36.180;2023-04-01T02:31:10;12.77;;;2.70;;
54665;SDS011;40566;50.006;36.180;2023-04-01T02:36:13;12.38;;;3.30;;
54665;SDS011;40566;50.006;36.180;2023-04-01T02:41:17;14.27;;;2.75;;
54665;SDS011;40566;50.006;36.180;2023-04-01T02:46:17;10.15;;;3.10;;
54665;SDS011;40566;50.006;36.180;2023-04-01T02:51:18;9.65;;;3.40;;
54665;SDS011;40566;50.006;36.180;2023-04-01T02:56:19;13.90;;;2.97;;
54665;SDS011;40566;50.006;36.180;2023-04-01T03:01:20;11.48;;;2.67;;
54665;SDS011;40566;50.006;36.180;2023-04-01T03:06:21;11.43;;;3.58;;
54665;SDS011;40566;50.006;36.180;2023-04-01T03:11:22;16.10;;;3.92;;
54665;SDS011;40566;50.006;36.180;2023-04-01T03:16:23;7.85;;;3.05;;
54665;SDS011;40566;50.006;36.180;2023-04-01T03:21:24;9.27;;;3.50;;
54665;SDS011;40566;50.006;36.180;2023-04-01T03:26:25;17.70;;;3.42;;
54665;SDS011;40566;50.006;36.180;2023-04-01T03:31:27;18.95;;;3.50;;
54665;SDS011;40566;50.006;36.180;2023-04-01T03:36:27;9.43;;;3.08;;
54665;SDS011;40566;50.006;36.180;2023-04-01T03:41:28;10.18;;;3.20;;
54665;SDS011;40566;50.006;36.180;2023-04-01T03:46:28;12.18;;;3.53;;
54665;SDS011;40566;50.006;36.180;2023-04-01T03:51:29;8.40;;;2.40;;
54665;SDS011;40566;50.006;36.180;2023-04-01T03:56:30;11.63;;;3.25;;
54665;SDS011;40566;50.006;36.180;2023-04-01T04:01:31;12.35;;;3.45;;
54665;SDS011;40566;50.006;36.180;2023-04-01T04:06:32;15.35;;;3.63;;
54665;SDS011;40566;50.006;36.180;2023-04-01T04:11:33;9.85;;;2.88;;
54665;SDS011;40566;50.006;36.180;2023-04-01T04:16:36;12.40;;;2.45;;
54665;SDS011;40566;50.006;36.180;2023-04-01T04:21:37;10.20;;;3.08;;
54665;SDS011;40566;50.006;36.180;2023-04-01T04:26:39;8.88;;;2.85;;
54665;SDS011;40566;50.006;36.180;2023-04-01T04:31:39;11.05;;;2.67;;
54665;SDS011;40566;50.006;36.180;2023-04-01T04:36:40;7.70;;;2.67;;
54665;SDS011;40566;50.006;36.180;2023-04-01T04:41:41;15.70;;;3.92;;
54665;SDS011;40566;50.006;36.180;2023-04-01T04:46:42;15.88;;;3.42;;
54665;SDS011;40566;50.006;36.180;2023-04-01T04:51:42;10.10;;;3.40;;
54665;SDS011;40566;50.006;36.180;2023-04-01T04:56:43;16.20;;;5.70;;
54665;SDS011;40566;50.006;36.180;2023-04-01T05:01:44;11.13;;;3.45;;
54665;SDS011;40566;50.006;36.180;2023-04-01T05:06:45;14.02;;;3.35;;
54665;SDS011;40566;50.006;36.180;2023-04-01T05:11:45;20.65;;;3.65;;
54665;SDS011;40566;50.006;36.180;2023-04-01T05:16:46;7.00;;;2.60;;
54665;SDS011;40566;50.006;36.180;2023-04-01T05:21:47;13.98;;;3.22;;
54665;SDS011;40566;50.006;36.180;2023-04-01T05:26:47;11.95;;;4.10;;
54665;SDS011;40566;50.006;36.180;2023-04-01T05:31:48;10.38;;;3.35;;
54665;SDS011;40566;50.006;36.180;2023-04-01T05:36:49;10.07;;;3.03;;
54665;SDS011;40566;50.006;36.180;2023-04-01T05:41:50;10.57;;;3.88;;
54665;SDS011;40566;50.006;36.180;2023-04-01T05:46:51;11.07;;;3.03;;
54665;SDS011;40566;50.006;36.180;2023-04-01T05:51:51;8.75;;;2.92;;
54665;SDS011;40566;50.006;36.180;2023-04-01T05:56:52;9.50;;;2.55;;
54665;SDS011;40566;50.006;36.180;2023-04-01T06:01:52;9.50;;;2.72;;
54665;SDS011;40566;50.006;36.180;2023-04-01T06:06:53;4.90;;;2.03;;
54665;SDS011;40566;50.006;36.180;2023-04-01T06:33:55;5.97;;;2.10;;
54665;SDS011;40566;50.006;36.180;2023-04-01T06:44:20;6.03;;;2.13;;
54665;SDS011;40566;50.006;36.180;2023-04-01T06:54:31;16.73;;;3.67;;
54665;SDS011;40566;50.006;36.180;2023-04-01T06:59:35;8.45;;;2.53;;
54665;SDS011;40566;50.006;36.180;2023-04-01T07:04:38;8.55;;;2.75;;
54665;SDS011;40566;50.006;36.180;2023-04-01T07:09:44;11.23;;;3.15;;
54665;SDS011;40566;50.006;36.180;2023-04-01T07:14:51;9.25;;;3.13;;
54665;SDS011;40566;50.006;36.180;2023-04-01T07:25:05;8.30;;;2.50;;
54665;SDS011;40566;50.006;36.180;2023-04-01T07:30:20;7.40;;;3.15;;
54665;SDS011;40566;50.006;36.180;2023-04-01T07:51:48;18.15;;;5.95;;
54665;SDS011;40566;50.006;36.180;2023-04-01T07:57:12;9.73;;;3.05;;
54665;SDS011;40566;50.006;36.180;2023-04-01T08:02:38;11.05;;;3.50;;
54665;SDS011;40566;50.006;36.180;2023-04-01T08:07:59;11.70;;;3.53;;
54665;SDS011;40566;50.006;36.180;2023-04-01T08:13:40;10.87;;;2.23;;
54665;SDS011;40566;50.006;36.180;2023-04-01T08:23:49;14.52;;;4.15;;
54665;SDS011;40566;50.006;36.180;2023-04-01T08:39:41;12.77;;;5.30;;
54665;SDS011;40566;50.006;36.180;2023-04-01T08:55:16;11.95;;;4.65;;
54665;SDS011;40566;50.006;36.180;2023-04-01T09:37:52;11.63;;;4.10;;
54665;SDS011;40566;50.006;36.180;2023-04-01T09:42:56;13.10;;;5.80;;
54665;SDS011;40566;50.006;36.180;2023-04-01T09:48:05;14.00;;;7.13;;
54665;SDS011;40566;50.006;36.180;2023-04-01T09:53:36;12.50;;;4.63;;
54665;SDS011;40566;50.006;36.180;2023-04-01T10:15:29;12.27;;;5.00;;
54665;SDS011;40566;50.006;36.180;2023-04-01T10:47:25;19.27;;;9.52;;
54665;SDS011;40566;50.006;36.180;2023-04-01T11:14:26;29.73;;;12.65;;
54665;SDS011;40566;50.006;36.180;2023-04-01T11:40:28;18.33;;;9.00;;
54665;SDS011;40566;50.006;36.180;2023-04-01T11:45:52;17.23;;;8.80;;
54665;SDS011;40566;50.006;36.180;2023-04-01T12:12:51;19.33;;;8.60;;
54665;SDS011;40566;50.006;36.180;2023-04-01T12:33:56;19.63;;;9.15;;
54665;SDS011;40566;50.006;36.180;2023-04-01T12:49:55;17.10;;;8.85;;
54665;SDS011;40566;50.006;36.180;2023-04-01T13:00:48;18.13;;;5.60;;
54665;SDS011;40566;50.006;36.180;2023-04-01T13:06:11;20.75;;;9.43;;
54665;SDS011;40566;50.006;36.180;2023-04-01T13:11:32;18.58;;;8.73;;
54665;SDS011;40566;50.006;36.180;2023-04-01T13:16:45;20.55;;;9.07;;
54665;SDS011;40566;50.006;36.180;2023-04-01T13:22:10;16.08;;;8.05;;
54665;SDS011;40566;50.006;36.180;2023-04-01T13:48:39;14.38;;;6.75;;
54665;SDS011;40566;50.006;36.180;2023-04-01T14:20:37;21.95;;;11.32;;
54665;SDS011;40566;50.006;36.180;2023-04-01T14:26:01;11.30;;;5.40;;
54665;SDS011;40566;50.006;36.180;2023-04-01T14:47:31;14.57;;;5.72;;
54665;SDS011;40566;50.006;36.180;2023-04-01T14:52:54;12.63;;;4.22;;
54665;SDS011;40566;50.006;36.180;2023-04-01T14:57:58;20.35;;;9.90;;
54665;SDS011;40566;50.006;36.180;2023-04-01T15:03:25;22.13;;;10.88;;
54665;SDS011;40566;50.006;36.180;2023-04-01T15:08:32;20.42;;;11.57;;
54665;SDS011;40566;50.006;36.180;2023-04-01T15:14:02;14.35;;;7.20;;
54665;SDS011;40566;50.006;36.180;2023-04-01T15:58:02;18.35;;;9.43;;
54665;SDS011;40566;50.006;36.180;2023-04-01T16:29:32;25.65;;;12.35;;
54665;SDS011;40566;50.006;36.180;2023-04-01T16:35:04;25.17;;;13.23;;
54665;SDS011;40566;50.006;36.180;2023-04-01T17:22:34;22.05;;;8.55;;
54665;SDS011;40566;50.006;36.180;2023-04-01T17:43:49;37.53;;;18.38;;
54665;SDS011;40566;50.006;36.180;2023-04-01T18:22:34;31.40;;;15.88;;
54665;SDS011;40566;50.006;36.180;2023-04-01T18:27:32;20.58;;;8.57;;
54665;SDS011;40566;50.006;36.180;2023-04-01T18:43:08;37.88;;;15.60;;
54665;SDS011;40566;50.006;36.180;2023-04-01T18:58:35;15.10;;;6.22;;
54665;SDS011;40566;50.006;36.180;2023-04-01T19:08:53;19.63;;;8.82;;
54665;SDS011;40566;50.006;36.180;2023-04-01T19:19:03;21.08;;;8.48;;
54665;SDS011;40566;50.006;36.180;2023-04-01T19:40:51;21.40;;;9.32;;
54665;SDS011;40566;50.006;36.180;2023-04-01T19:56:41;21.27;;;10.60;;
54665;SDS011;40566;50.006;36.180;2023-04-01T20:17:58;25.88;;;10.75;;
54665;SDS011;40566;50.006;36.180;2023-04-01T20:28:57;24.50;;;10.30;;
54665;SDS011;40566;50.006;36.180;2023-04-01T21:43:26;20.55;;;7.18;;
54665;SDS011;40566;50.006;36.180;2023-04-01T22:16:08;16.80;;;4.40;;
54665;SDS011;40566;50.006;36.180;2023-04-01T22:21:26;9.70;;;2.92;;
54665;SDS011;40566;50.006;36.180;2023-04-01T22:32:24;11.65;;;4.47;;
54665;SDS011;40566;50.006;36.180;2023-04-01T22:42:58;16.17;;;5.72;;
54665;SDS011;40566;50.006;36.180;2023-04-01T22:48:12;5.85;;;2.50;;
54665;SDS011;40566;50.006;36.180;2023-04-01T22:58:47;7.35;;;2.00;;
54665;SDS011;40566;50.006;36.180;2023-04-01T23:03:52;13.60;;;3.97;;
54665;SDS011;40566;50.006;36.180;2023-04-01T23:30:02;13.73;;;3.50;;
54665;SDS011;40566;50.006;36.180;2023-04-01T23:35:11;12.73;;;2.88;;
54665;SDS011;40566;50.006;36.180;2023-04-01T23:40:17;6.07;;;2.13;;
54665;SDS011;40566;50.006;36.180;2023-04-01T23:45:17;8.77;;;3.40;;
54665;SDS011;40566;50.006;36.180;2023-04-01T23:50:22;10.38;;;2.42;;
54665;SDS011;40566;50.006;36.180;2023-04-01T23:55:26;13.52;;;3.33;;
